Time;durP1;ratioP1;P1;durP2;ratioP2;P2;SDS_P1;SDS_P2;PMS_P1;PMS_P2;Temp;Humidity;BMP_temperature;BMP_pressure;BME280_temperature;BME280_humidity;BME280_pressure;Samples;Min_cycle;Max_cycle;Signal;HPM_P1;HPM_P2
2023/06/15 00:00:35;;;;;;;5.68;2.22;;;19.00;78.00;;;;;;5076440;28;20064;-58
2023/06/15 00:03:01;;;;;;;4.28;2.20;;;19.00;78.40;;;;;;5069395;28;20096;-57
2023/06/15 00:05:27;;;;;;;4.30;1.95;;;18.80;78.40;;;;;;5078290;28;20048;-58
2023/06/15 00:07:52;;;;;;;3.13;1.98;;;18.80;78.50;;;;;;5076029;28;20063;-58
2023/06/15 00:10:18;;;;;;;4.07;2.00;;;18.80;78.50;;;;;;5079533;28;20032;-58
2023/06/15 00:12:44;;;;;;;3.63;2.17;;;18.70;78.70;;;;;;5079347;28;20064;-58
2023/06/15 00:15:10;;;;;;;4.22;2.25;;;18.70;78.70;;;;;;5079575;28;20112;-57
2023/06/15 00:17:37;;;;;;;4.95;2.30;;;18.70;78.90;;;;;;5066063;28;20350;-59
2023/06/15 00:20:08;;;;;;;5.53;2.35;;;18.70;78.90;;;;;;5059462;28;20057;-58
2023/06/15 00:22:34;;;;;;;3.78;2.05;;;18.70;79.00;;;;;;5058654;28;20044;-58
2023/06/15 00:25:00;;;;;;;3.92;2.20;;;18.70;79.20;;;;;;5057829;28;20048;-58
2023/06/15 00:27:26;;;;;;;4.00;2.05;;;18.60;80.30;;;;;;5059136;28;20128;-58
2023/06/15 00:29:52;;;;;;;5.45;2.20;;;18.50;79.90;;;;;;5058976;28;20075;-57
2023/06/15 00:32:17;;;;;;;4.78;2.33;;;18.50;80.00;;;;;;5059342;28;20603;-58
2023/06/15 00:34:43;;;;;;;4.57;2.42;;;18.40;80.40;;;;;;5058843;28;20138;-60
2023/06/15 00:37:09;;;;;;;6.07;2.83;;;18.40;80.60;;;;;;5059285;28;20041;-58
2023/06/15 00:39:35;;;;;;;7.15;2.90;;;18.30;80.50;;;;;;5069324;28;20033;-58
2023/06/15 00:42:00;;;;;;;5.57;2.80;;;18.30;81.00;;;;;;5078917;28;20049;-58
2023/06/15 00:44:26;;;;;;;4.25;2.85;;;18.20;81.20;;;;;;5078791;28;20044;-58
2023/06/15 00:46:52;;;;;;;5.32;2.92;;;18.20;81.50;;;;;;5079175;28;20537;-57
2023/06/15 00:49:21;;;;;;;5.30;3.03;;;18.10;81.80;;;;;;5061376;28;20287;-59
2023/06/15 00:51:47;;;;;;;5.82;3.13;;;18.00;82.20;;;;;;5076900;28;20087;-58
2023/06/15 00:54:15;;;;;;;4.47;2.90;;;18.00;82.20;;;;;;5069517;28;20045;-57
2023/06/15 00:56:40;;;;;;;4.97;2.78;;;18.00;82.60;;;;;;5061823;28;20123;-57
2023/06/15 00:59:06;;;;;;;5.50;3.25;;;17.90;82.90;;;;;;5079239;28;20052;-57
2023/06/15 01:01:32;;;;;;;5.22;3.05;;;17.80;83.30;;;;;;5071568;28;20449;-58
2023/06/15 01:03:59;;;;;;;5.00;3.00;;;17.80;83.50;;;;;;5070672;28;20045;-58
2023/06/15 01:06:31;;;;;;;5.03;3.40;;;17.80;83.70;;;;;;5067322;28;20045;-58
2023/06/15 01:09:01;;;;;;;6.75;3.20;;;17.70;84.30;;;;;;5058219;28;20041;-58
2023/06/15 01:11:29;;;;;;;5.88;3.53;;;17.60;84.40;;;;;;5058821;28;20041;-58
2023/06/15 01:13:57;;;;;;;4.65;2.92;;;17.50;84.70;;;;;;5058714;28;20033;-58
2023/06/15 01:16:31;;;;;;;6.00;3.40;;;17.40;84.90;;;;;;5061115;28;20056;-58
2023/06/15 01:18:58;;;;;;;7.13;3.40;;;17.40;85.10;;;;;;5078641;28;20045;-58
2023/06/15 01:21:29;;;;;;;6.50;3.60;;;17.40;85.40;;;;;;5072967;28;20056;-58
2023/06/15 01:24:17;;;;;;;6.43;3.53;;;17.30;85.40;;;;;;5057587;28;20045;-58
2023/06/15 01:26:46;;;;;;;6.25;3.33;;;17.30;85.90;;;;;;5068722;28;20088;-58
2023/06/15 01:29:14;;;;;;;7.05;3.33;;;17.20;85.80;;;;;;5058889;28;20045;-58
2023/06/15 01:31:40;;;;;;;5.85;3.70;;;17.20;86.00;;;;;;5072356;28;20041;-58
2023/06/15 01:34:06;;;;;;;5.85;2.92;;;17.10;86.50;;;;;;5078652;28;20083;-59
2023/06/15 01:36:32;;;;;;;5.28;3.20;;;17.10;86.40;;;;;;5077632;28;20040;-58
2023/06/15 01:38:59;;;;;;;6.40;3.45;;;17.00;86.50;;;;;;5078290;28;20045;-58
2023/06/15 01:41:27;;;;;;;7.82;3.80;;;17.00;86.50;;;;;;5078934;28;20052;-57
2023/06/15 01:43:54;;;;;;;5.40;3.00;;;17.10;86.50;;;;;;5063487;28;20066;-58
2023/06/15 01:46:22;;;;;;;3.95;3.00;;;17.10;86.50;;;;;;5058771;28;20093;-57
2023/06/15 01:48:49;;;;;;;6.10;3.50;;;17.10;86.40;;;;;;5058336;28;20073;-58
2023/06/15 01:51:16;;;;;;;5.85;3.40;;;17.10;86.50;;;;;;5058096;28;20075;-58
2023/06/15 01:53:42;;;;;;;6.97;3.20;;;17.10;86.70;;;;;;5058601;28;20053;-57
2023/06/15 01:56:08;;;;;;;8.52;3.58;;;17.00;86.70;;;;;;5077990;28;20041;-58
2023/06/15 01:58:34;;;;;;;6.82;3.42;;;17.00;86.80;;;;;;5078642;28;20047;-58
2023/06/15 02:00:59;;;;;;;7.05;3.55;;;17.00;86.90;;;;;;5081515;28;20075;-58
2023/06/15 02:03:26;;;;;;;4.40;3.08;;;17.00;86.90;;;;;;5068509;28;20097;-59
2023/06/15 02:05:52;;;;;;;5.68;3.50;;;17.00;87.20;;;;;;5061301;28;20092;-58
2023/06/15 02:08:17;;;;;;;6.40;4.10;;;16.90;87.30;;;;;;5076902;28;20040;-57
2023/06/15 02:10:43;;;;;;;6.13;3.83;;;16.90;87.40;;;;;;5069528;28;20153;-58
2023/06/15 02:13:11;;;;;;;7.88;4.10;;;16.90;87.90;;;;;;5070117;28;20104;-58
2023/06/15 02:15:38;;;;;;;5.88;3.85;;;16.80;87.40;;;;;;5070305;28;20072;-58
2023/06/15 02:18:14;;;;;;;8.00;4.30;;;16.80;87.50;;;;;;5063775;28;20040;-58
2023/06/15 02:20:44;;;;;;;8.50;3.55;;;16.70;87.90;;;;;;5066115;28;20044;-58
2023/06/15 02:23:10;;;;;;;8.02;3.75;;;16.70;87.70;;;;;;5064810;28;20033;-58
2023/06/15 02:25:37;;;;;;;6.10;3.40;;;16.70;87.80;;;;;;5072089;28;20041;-59
2023/06/15 02:28:03;;;;;;;6.43;3.85;;;16.60;88.00;;;;;;5061235;28;20045;-58
2023/06/15 02:30:28;;;;;;;7.45;3.42;;;16.60;88.40;;;;;;5078217;28;20040;-58
2023/06/15 02:32:55;;;;;;;5.20;3.92;;;16.40;88.60;;;;;;5071886;28;20086;-58
2023/06/15 02:35:21;;;;;;;5.57;3.70;;;16.40;89.30;;;;;;5072522;28;20037;-58
2023/06/15 02:37:47;;;;;;;5.78;3.58;;;16.30;90.00;;;;;;5061327;28;20113;-57
2023/06/15 02:40:13;;;;;;;8.05;3.30;;;16.20;89.80;;;;;;5076422;28;20109;-57
2023/06/15 02:42:39;;;;;;;6.93;4.07;;;16.20;89.90;;;;;;5069981;28;20037;-58
2023/06/15 02:45:09;;;;;;;5.90;3.45;;;16.20;89.90;;;;;;5069151;28;20080;-58
2023/06/15 02:47:36;;;;;;;5.53;3.95;;;16.10;89.90;;;;;;5059923;28;20109;-58
2023/06/15 02:50:05;;;;;;;4.80;3.30;;;16.20;90.00;;;;;;5069046;28;20044;-58
2023/06/15 02:52:31;;;;;;;5.05;3.50;;;16.10;90.00;;;;;;5073823;28;20125;-58
2023/06/15 02:55:01;;;;;;;5.57;3.72;;;16.10;90.00;;;;;;5061191;28;20041;-58
2023/06/15 02:57:27;;;;;;;6.43;4.00;;;16.10;90.20;;;;;;5060494;28;20087;-58
2023/06/15 02:59:53;;;;;;;7.35;3.80;;;16.00;90.30;;;;;;5060392;28;20064;-58
2023/06/15 03:02:20;;;;;;;11.98;4.30;;;15.90;90.40;;;;;;5060953;28;20056;-58
2023/06/15 03:04:50;;;;;;;5.30;3.80;;;15.80;90.70;;;;;;5060380;28;20079;-59
2023/06/15 03:07:17;;;;;;;6.63;3.58;;;15.80;90.70;;;;;;5058355;28;20123;-58
2023/06/15 03:09:52;;;;;;;8.73;3.80;;;15.70;90.70;;;;;;5060273;28;20041;-58
2023/06/15 03:12:19;;;;;;;5.07;3.40;;;15.70;90.90;;;;;;5061459;28;20045;-58
2023/06/15 03:14:50;;;;;;;7.30;4.38;;;15.70;91.00;;;;;;5060662;28;20100;-57
2023/06/15 03:17:21;;;;;;;5.20;3.67;;;15.70;90.90;;;;;;5065598;28;21440;-57
2023/06/15 03:19:47;;;;;;;6.63;3.70;;;15.60;91.10;;;;;;5064018;28;20052;-58
2023/06/15 03:22:14;;;;;;;5.68;3.83;;;15.60;91.00;;;;;;5064635;28;20068;-58
2023/06/15 03:24:41;;;;;;;8.00;4.38;;;15.60;91.00;;;;;;5068829;28;20037;-59
2023/06/15 03:27:10;;;;;;;7.38;3.90;;;15.50;91.10;;;;;;5074736;28;20048;-58
2023/06/15 03:29:37;;;;;;;6.75;3.72;;;15.50;91.30;;;;;;5063923;28;20045;-58
2023/06/15 03:32:07;;;;;;;5.97;3.70;;;15.50;91.60;;;;;;5071217;28;20052;-57
2023/06/15 03:34:35;;;;;;;5.03;3.42;;;15.50;91.40;;;;;;5079944;28;20394;-58
2023/06/15 03:37:00;;;;;;;7.03;4.10;;;15.50;91.40;;;;;;5080482;28;20041;-58
2023/06/15 03:39:26;;;;;;;6.00;3.88;;;15.50;91.40;;;;;;5073619;28;20052;-58
2023/06/15 03:41:52;;;;;;;5.55;3.40;;;15.50;91.50;;;;;;5059955;28;20041;-58
2023/06/15 03:44:18;;;;;;;5.80;3.80;;;15.50;91.40;;;;;;5071625;28;20041;-58
2023/06/15 03:46:44;;;;;;;5.20;3.63;;;15.50;91.60;;;;;;5062267;28;20045;-58
2023/06/15 03:49:10;;;;;;;6.32;4.00;;;15.50;91.50;;;;;;5060052;28;20037;-58
2023/06/15 03:51:37;;;;;;;10.27;4.10;;;15.50;91.60;;;;;;5058964;28;20055;-57
2023/06/15 03:54:04;;;;;;;8.75;4.50;;;15.50;91.60;;;;;;5060374;28;20114;-57
2023/06/15 03:56:30;;;;;;;5.75;3.25;;;15.50;91.70;;;;;;5058704;28;20048;-58
2023/06/15 03:58:56;;;;;;;5.95;3.83;;;15.50;91.70;;;;;;5059585;28;20124;-58
2023/06/15 04:01:24;;;;;;;6.20;3.85;;;15.50;91.80;;;;;;5059448;28;20063;-58
2023/06/15 04:03:51;;;;;;;5.00;3.80;;;15.50;91.70;;;;;;5060290;28;20037;-59
2023/06/15 04:06:17;;;;;;;6.82;3.65;;;15.50;91.90;;;;;;5063334;28;20045;-58
2023/06/15 04:08:43;;;;;;;6.07;3.78;;;15.50;92.00;;;;;;5079392;28;20098;-58
2023/06/15 04:11:09;;;;;;;5.15;3.80;;;15.50;92.10;;;;;;5079686;28;20055;-58
2023/06/15 04:13:35;;;;;;;7.03;4.13;;;15.40;92.10;;;;;;5079317;28;20128;-58
2023/06/15 04:16:01;;;;;;;7.43;4.18;;;15.40;92.10;;;;;;5072734;28;20053;-58
2023/06/15 04:18:27;;;;;;;7.03;4.25;;;15.50;92.20;;;;;;5079034;28;20057;-58
2023/06/15 04:20:52;;;;;;;6.35;4.28;;;15.40;92.10;;;;;;5059176;28;20047;-58
2023/06/15 04:23:18;;;;;;;6.00;3.88;;;15.40;92.30;;;;;;5059615;28;20041;-57
2023/06/15 04:25:45;;;;;;;7.57;4.13;;;15.40;92.40;;;;;;5060689;28;20033;-58
2023/06/15 04:28:10;;;;;;;8.55;3.58;;;15.40;92.50;;;;;;5059518;28;20049;-57
2023/06/15 04:30:44;;;;;;;7.20;4.22;;;15.40;92.50;;;;;;5072707;28;20104;-57
2023/06/15 04:33:14;;;;;;;5.55;3.90;;;15.30;92.70;;;;;;5062396;28;20041;-59
2023/06/15 04:35:45;;;;;;;6.38;3.72;;;15.30;92.90;;;;;;5071750;28;20071;-58
2023/06/15 04:38:13;;;;;;;5.18;3.40;;;15.30;92.70;;;;;;5060956;28;20044;-57
2023/06/15 04:40:41;;;;;;;6.93;3.97;;;15.40;92.90;;;;;;5068625;28;20080;-57
2023/06/15 04:43:08;;;;;;;6.95;3.97;;;15.40;92.80;;;;;;5063939;28;20584;-58
2023/06/15 04:45:34;;;;;;;6.68;3.97;;;15.40;92.90;;;;;;5075826;28;20064;-58
2023/06/15 04:48:00;;;;;;;11.68;3.97;;;15.40;93.00;;;;;;5059220;28;20108;-55
2023/06/15 04:50:26;;;;;;;8.43;3.97;;;15.40;92.90;;;;;;5068762;28;20087;-58
2023/06/15 04:52:51;;;;;;;5.25;3.78;;;15.50;92.90;;;;;;5061764;28;20320;-58
2023/06/15 04:55:17;;;;;;;10.93;4.07;;;15.60;92.80;;;;;;5058603;28;20124;-57
2023/06/15 04:57:44;;;;;;;7.30;4.22;;;15.60;93.00;;;;;;5070840;28;20048;-58
2023/06/15 05:00:11;;;;;;;8.05;3.83;;;15.60;93.00;;;;;;5078616;28;20048;-58
2023/06/15 05:02:36;;;;;;;6.68;3.72;;;15.60;93.10;;;;;;5077542;28;20130;-58
2023/06/15 05:05:02;;;;;;;7.05;3.88;;;15.70;93.10;;;;;;5057998;28;20628;-58
2023/06/15 05:07:28;;;;;;;6.85;3.90;;;15.70;93.00;;;;;;5063015;28;20039;-58
2023/06/15 05:09:55;;;;;;;8.15;3.65;;;15.70;93.10;;;;;;5075743;28;20082;-58
2023/06/15 05:12:21;;;;;;;6.45;3.65;;;15.80;93.00;;;;;;5074540;28;20056;-57
2023/06/15 05:14:47;;;;;;;6.20;3.65;;;15.80;92.90;;;;;;5069828;28;20100;-57
2023/06/15 05:17:12;;;;;;;5.82;3.90;;;15.90;92.90;;;;;;5062759;28;20053;-56
2023/06/15 05:19:38;;;;;;;6.28;3.58;;;16.00;92.90;;;;;;5066722;28;20105;-58
2023/06/15 05:22:05;;;;;;;8.45;4.07;;;16.00;93.10;;;;;;5057864;28;20148;-58
2023/06/15 05:24:32;;;;;;;5.72;3.67;;;16.00;93.00;;;;;;5063712;28;20040;-58
2023/06/15 05:26:57;;;;;;;7.32;3.70;;;16.10;93.00;;;;;;5067424;28;20044;-57
2023/06/15 05:29:23;;;;;;;9.88;3.90;;;16.10;92.90;;;;;;5068811;28;20033;-57
2023/06/15 05:31:49;;;;;;;6.38;3.85;;;16.20;92.90;;;;;;5065295;28;20416;-57
2023/06/15 05:34:14;;;;;;;6.55;3.75;;;16.20;92.90;;;;;;5071513;28;20041;-57
2023/06/15 05:36:40;;;;;;;4.53;3.28;;;16.30;92.80;;;;;;5065666;28;20448;-57
2023/06/15 05:39:06;;;;;;;5.50;3.60;;;16.40;92.80;;;;;;5072392;28;20400;-57
2023/06/15 05:41:32;;;;;;;7.07;3.60;;;16.50;92.80;;;;;;5078011;28;20036;-57
2023/06/15 05:43:59;;;;;;;6.65;3.60;;;16.60;92.60;;;;;;5071133;28;20033;-57
2023/06/15 05:46:25;;;;;;;5.43;3.60;;;16.70;92.60;;;;;;5064806;28;20568;-56
2023/06/15 05:48:51;;;;;;;6.75;3.85;;;16.70;92.50;;;;;;5064495;28;20066;-57
2023/06/15 05:51:16;;;;;;;8.65;3.80;;;16.80;92.40;;;;;;5072748;28;20055;-56
2023/06/15 05:53:42;;;;;;;6.13;3.45;;;16.90;92.30;;;;;;5064910;28;20048;-57
2023/06/15 05:56:08;;;;;;;6.70;3.33;;;17.00;92.20;;;;;;5061108;28;20041;-57
2023/06/15 05:58:34;;;;;;;7.10;3.60;;;17.00;92.00;;;;;;5075181;28;20046;-58
2023/06/15 06:01:00;;;;;;;4.82;3.55;;;17.10;92.00;;;;;;5078327;28;20047;-58
2023/06/15 06:03:26;;;;;;;6.22;3.45;;;17.20;91.90;;;;;;5063967;28;20088;-57
2023/06/15 06:05:51;;;;;;;5.05;3.50;;;17.30;91.70;;;;;;5061919;28;20068;-58
2023/06/15 06:08:18;;;;;;;8.80;3.60;;;17.40;91.60;;;;;;5062000;28;20049;-58
2023/06/15 06:10:44;;;;;;;5.88;3.47;;;17.50;91.40;;;;;;5062008;28;20163;-58
2023/06/15 06:13:10;;;;;;;5.63;2.92;;;17.60;91.20;;;;;;5073011;28;20482;-58
2023/06/15 06:15:36;;;;;;;8.32;3.03;;;17.70;91.00;;;;;;5080683;28;20079;-58
2023/06/15 06:18:04;;;;;;;6.75;3.28;;;17.80;90.70;;;;;;5078345;28;20136;-59
2023/06/15 06:20:31;;;;;;;5.32;3.30;;;17.90;90.60;;;;;;5065861;28;20049;-58
2023/06/15 06:22:57;;;;;;;4.88;3.03;;;18.00;90.30;;;;;;5072668;28;20087;-58
2023/06/15 06:25:22;;;;;;;6.20;3.10;;;18.10;90.20;;;;;;5066255;28;20045;-57
2023/06/15 06:27:48;;;;;;;5.32;3.00;;;18.30;90.00;;;;;;5071361;28;20438;-60
2023/06/15 06:30:14;;;;;;;5.32;2.65;;;18.50;89.80;;;;;;5060883;28;20072;-57
2023/06/15 06:32:39;;;;;;;10.40;2.92;;;18.60;88.90;;;;;;5061572;28;20029;-58
2023/06/15 06:35:06;;;;;;;4.90;2.50;;;18.80;88.10;;;;;;5061252;28;20075;-58
2023/06/15 06:37:31;;;;;;;7.70;2.70;;;19.00;87.80;;;;;;5077570;28;20040;-58
2023/06/15 06:39:57;;;;;;;7.57;2.65;;;19.20;87.40;;;;;;5069872;28;20658;-57
2023/06/15 06:42:23;;;;;;;4.45;2.90;;;19.40;86.60;;;;;;5068774;28;20033;-58
2023/06/15 06:44:48;;;;;;;7.05;2.85;;;19.60;85.80;;;;;;5071692;28;20036;-59
2023/06/15 06:47:14;;;;;;;4.68;2.60;;;19.80;84.90;;;;;;5067144;28;20044;-58
2023/06/15 06:49:40;;;;;;;5.43;2.67;;;20.10;84.60;;;;;;5065269;28;20076;-57
2023/06/15 06:52:06;;;;;;;3.90;2.30;;;20.20;84.10;;;;;;5072836;28;20109;-58
2023/06/15 06:54:32;;;;;;;5.30;2.33;;;20.40;83.40;;;;;;5064943;28;20044;-57
2023/06/15 06:56:57;;;;;;;5.18;2.78;;;20.60;82.40;;;;;;5063528;28;20094;-58
2023/06/15 06:59:23;;;;;;;4.13;2.53;;;20.80;81.90;;;;;;5058420;28;20068;-57
2023/06/15 07:01:48;;;;;;;4.32;2.53;;;21.00;81.30;;;;;;5066384;28;20033;-57
2023/06/15 07:04:14;;;;;;;5.82;2.80;;;21.20;80.80;;;;;;5057938;28;20128;-58
2023/06/15 07:06:40;;;;;;;4.07;2.70;;;21.40;80.20;;;;;;5063906;28;20055;-58
2023/06/15 07:09:05;;;;;;;6.97;3.03;;;21.50;80.40;;;;;;5068296;28;20049;-58
2023/06/15 07:11:31;;;;;;;3.90;2.45;;;21.70;79.50;;;;;;5069688;28;20053;-57
2023/06/15 07:13:58;;;;;;;4.43;2.47;;;21.90;79.10;;;;;;5060556;28;20037;-58
2023/06/15 07:16:24;;;;;;;4.68;2.60;;;22.00;78.80;;;;;;5064411;28;20122;-57
2023/06/15 07:18:50;;;;;;;3.85;2.45;;;22.10;77.70;;;;;;5062148;28;20060;-57
2023/06/15 07:21:15;;;;;;;3.85;2.20;;;22.30;77.60;;;;;;5065803;28;20049;-58
2023/06/15 07:23:41;;;;;;;3.95;2.47;;;22.40;76.70;;;;;;5069279;28;20090;-58
2023/06/15 07:26:07;;;;;;;7.75;2.50;;;22.60;76.00;;;;;;5061479;28;20128;-58
2023/06/15 07:28:32;;;;;;;4.10;2.22;;;22.80;75.60;;;;;;5059010;28;20543;-57
2023/06/15 07:30:58;;;;;;;5.70;2.50;;;23.00;75.20;;;;;;5057683;28;20140;-57
2023/06/15 07:33:24;;;;;;;3.70;2.30;;;23.10;74.20;;;;;;5066062;28;20071;-58
2023/06/15 07:35:50;;;;;;;4.53;2.75;;;23.30;73.00;;;;;;5063334;28;20041;-58
2023/06/15 07:38:15;;;;;;;5.40;2.60;;;23.50;72.60;;;;;;5067583;28;20116;-58
2023/06/15 07:40:41;;;;;;;6.68;2.40;;;23.80;72.50;;;;;;5066744;28;20045;-57
2023/06/15 07:43:07;;;;;;;7.53;2.85;;;24.10;72.00;;;;;;5067182;28;20037;-58
2023/06/15 07:45:32;;;;;;;5.93;2.78;;;24.40;70.80;;;;;;5071881;28;20040;-58
2023/06/15 07:47:58;;;;;;;5.28;2.50;;;24.70;70.60;;;;;;5066707;28;20097;-58
2023/06/15 07:50:26;;;;;;;5.88;2.90;;;25.10;70.70;;;;;;5066512;28;20044;-58
2023/06/15 07:52:52;;;;;;;7.93;2.53;;;25.40;70.00;;;;;;5060858;28;20037;-58
2023/06/15 07:55:17;;;;;;;8.10;2.53;;;25.60;69.00;;;;;;5057463;28;20047;-58
2023/06/15 07:57:43;;;;;;;3.83;2.25;;;25.70;68.40;;;;;;5063951;28;20036;-58
2023/06/15 08:00:10;;;;;;;3.67;2.30;;;25.80;68.00;;;;;;5061879;28;20037;-58
2023/06/15 08:02:36;;;;;;;4.07;2.30;;;25.90;67.90;;;;;;5055417;28;20047;-57
2023/06/15 08:05:02;;;;;;;7.95;2.83;;;26.00;67.70;;;;;;5057394;28;20045;-58
2023/06/15 08:07:28;;;;;;;6.85;2.20;;;26.00;66.40;;;;;;5063603;28;20051;-58
2023/06/15 08:09:55;;;;;;;6.22;2.63;;;26.20;65.90;;;;;;5071383;28;20080;-57
2023/06/15 08:12:21;;;;;;;4.90;2.45;;;26.30;65.20;;;;;;5064180;28;20036;-57
2023/06/15 08:14:47;;;;;;;5.57;2.78;;;26.40;64.70;;;;;;5065007;28;20063;-57
2023/06/15 08:17:13;;;;;;;4.60;2.80;;;26.50;64.70;;;;;;5060340;28;20092;-58
2023/06/15 08:19:38;;;;;;;4.55;2.58;;;26.60;64.70;;;;;;5060115;28;20037;-58
2023/06/15 08:22:04;;;;;;;3.97;2.60;;;26.70;64.20;;;;;;5057977;28;20121;-58
2023/06/15 08:24:31;;;;;;;5.88;2.40;;;26.90;64.30;;;;;;5059635;28;21034;-57
2023/06/15 08:26:58;;;;;;;7.15;2.72;;;27.10;63.80;;;;;;5059151;28;20045;-57
2023/06/15 08:29:24;;;;;;;4.07;2.60;;;27.10;62.90;;;;;;5067289;28;20048;-58
2023/06/15 08:31:50;;;;;;;3.35;2.40;;;27.20;62.70;;;;;;5072388;28;20053;-57
2023/06/15 08:34:16;;;;;;;5.45;2.78;;;27.30;62.10;;;;;;5068945;28;20048;-59
2023/06/15 08:36:41;;;;;;;5.13;2.70;;;27.30;61.10;;;;;;5067175;28;20040;-59
2023/06/15 08:39:10;;;;;;;7.85;2.88;;;27.20;59.80;;;;;;5067421;28;20033;-58
2023/06/15 08:41:37;;;;;;;7.55;2.35;;;27.00;59.10;;;;;;5070636;28;20071;-58
2023/06/15 08:44:05;;;;;;;4.25;2.58;;;26.80;58.90;;;;;;5063195;28;20162;-58
2023/06/15 08:46:31;;;;;;;6.07;2.50;;;26.80;59.70;;;;;;5060288;28;20037;-58
2023/06/15 08:48:58;;;;;;;3.92;2.70;;;26.80;59.60;;;;;;5064016;28;20043;-58
2023/06/15 08:51:25;;;;;;;6.72;2.50;;;27.00;59.20;;;;;;5059973;28;20064;-58
2023/06/15 08:53:54;;;;;;;3.60;2.40;;;27.10;59.10;;;;;;5066067;28;20037;-58
2023/06/15 08:56:21;;;;;;;4.85;2.30;;;27.20;58.00;;;;;;5058997;28;20079;-58
2023/06/15 08:58:50;;;;;;;4.65;2.90;;;27.20;57.60;;;;;;5074059;28;20102;-58
2023/06/15 09:01:23;;;;;;;3.90;2.60;;;27.30;57.00;;;;;;5065991;28;20046;-58
2023/06/15 09:03:53;;;;;;;6.00;2.45;;;27.40;56.70;;;;;;5070463;28;20059;-58
2023/06/15 09:06:21;;;;;;;3.92;2.60;;;27.40;55.40;;;;;;5063204;28;20060;-58
2023/06/15 09:08:48;;;;;;;7.45;2.88;;;27.40;55.70;;;;;;5062640;28;20412;-58
2023/06/15 09:11:15;;;;;;;4.00;2.35;;;27.40;55.20;;;;;;5062873;28;20052;-58
2023/06/15 09:13:41;;;;;;;3.47;2.33;;;27.50;55.10;;;;;;5062327;28;20084;-59
2023/06/15 09:16:10;;;;;;;3.97;2.30;;;27.70;55.80;;;;;;5062341;28;20053;-58
2023/06/15 09:18:51;;;;;;;6.70;2.90;;;27.60;53.00;;;;;;5078099;28;20048;-58
2023/06/15 09:21:21;;;;;;;5.00;2.70;;;27.50;52.40;;;;;;5082388;28;20098;-58
2023/06/15 09:23:47;;;;;;;3.50;2.15;;;27.50;54.30;;;;;;5082946;28;20036;-58
2023/06/15 09:26:23;;;;;;;6.15;2.50;;;27.60;54.40;;;;;;5068572;28;20084;-58
2023/06/15 09:28:49;;;;;;;4.38;2.45;;;27.60;53.70;;;;;;5062620;28;20049;-58
2023/06/15 09:31:35;;;;;;;13.52;2.30;;;27.60;53.20;;;;;;5066289;28;20040;-58
2023/06/15 09:34:08;;;;;;;5.00;2.40;;;27.70;50.00;;;;;;5066184;28;20088;-58
2023/06/15 09:36:48;;;;;;;2.60;2.10;;;27.70;52.00;;;;;;5077696;28;20047;-58
2023/06/15 09:39:14;;;;;;;2.65;2.15;;;27.80;50.70;;;;;;5078339;28;20097;-59
2023/06/15 09:41:59;;;;;;;3.13;2.17;;;27.90;51.50;;;;;;5062448;28;20044;-59
2023/06/15 09:44:25;;;;;;;3.78;2.40;;;27.80;49.70;;;;;;5067698;28;20040;-59
2023/06/15 09:46:53;;;;;;;4.18;2.30;;;27.90;49.80;;;;;;5069114;28;20040;-58
2023/06/15 09:49:25;;;;;;;4.80;2.47;;;27.80;49.80;;;;;;5070813;28;20078;-58
2023/06/15 09:51:51;;;;;;;5.75;2.30;;;27.80;49.30;;;;;;5068651;28;20041;-58
2023/06/15 09:54:20;;;;;;;4.75;2.30;;;27.70;50.90;;;;;;5072057;28;20029;-56
2023/06/15 09:56:49;;;;;;;4.60;2.38;;;27.70;50.60;;;;;;5062172;28;20037;-58
2023/06/15 09:59:14;;;;;;;3.90;2.50;;;27.70;51.20;;;;;;5074057;28;20048;-58
2023/06/15 10:01:44;;;;;;;5.88;2.25;;;27.70;50.90;;;;;;5077277;28;20041;-57
2023/06/15 10:04:10;;;;;;;3.80;2.15;;;27.70;50.60;;;;;;5073842;28;20033;-58
2023/06/15 10:06:37;;;;;;;4.43;2.28;;;27.60;49.90;;;;;;5081045;28;20037;-58
2023/06/15 10:09:06;;;;;;;5.10;2.47;;;27.60;49.70;;;;;;5080874;28;20494;-58
2023/06/15 10:11:37;;;;;;;3.88;2.20;;;27.60;48.80;;;;;;5061649;28;20041;-58
2023/06/15 10:14:21;;;;;;;3.03;2.10;;;27.50;48.30;;;;;;5064032;28;20417;-58
2023/06/15 10:16:53;;;;;;;5.72;2.10;;;27.40;48.10;;;;;;5078584;28;20084;-58
2023/06/15 10:19:23;;;;;;;4.63;2.35;;;27.30;48.00;;;;;;5082031;28;20104;-58
2023/06/15 10:21:50;;;;;;;3.63;2.28;;;27.60;48.70;;;;;;5080796;28;20098;-58
2023/06/15 10:24:19;;;;;;;3.70;2.30;;;27.20;48.10;;;;;;5081887;28;20345;-58
2023/06/15 10:26:45;;;;;;;3.72;2.28;;;27.20;47.60;;;;;;5080657;28;20127;-57
2023/06/15 10:29:25;;;;;;;3.40;2.38;;;27.00;47.50;;;;;;5079204;28;20063;-58
2023/06/15 10:32:08;;;;;;;5.05;2.17;;;26.80;46.40;;;;;;5080578;28;20048;-57
2023/06/15 10:34:40;;;;;;;7.47;2.60;;;26.70;46.40;;;;;;5077771;28;20045;-57
2023/06/15 10:37:06;;;;;;;3.00;1.95;;;26.50;46.90;;;;;;5080718;28;20045;-57
2023/06/15 10:39:36;;;;;;;6.80;2.00;;;26.40;47.00;;;;;;5081094;28;20037;-59
2023/06/15 10:42:11;;;;;;;3.00;2.30;;;26.40;46.90;;;;;;5067967;28;20045;-58
2023/06/15 10:44:37;;;;;;;5.28;2.33;;;26.40;47.00;;;;;;5081167;28;20655;-58
2023/06/15 10:47:10;;;;;;;5.75;2.90;;;26.40;46.50;;;;;;5063018;28;20041;-57
2023/06/15 10:49:36;;;;;;;3.20;2.20;;;26.40;47.00;;;;;;5061269;28;20040;-58
2023/06/15 10:52:06;;;;;;;2.80;2.10;;;26.40;47.30;;;;;;5060033;28;20041;-58
2023/06/15 10:54:31;;;;;;;4.57;2.20;;;26.40;47.00;;;;;;5063025;28;20045;-57
2023/06/15 10:56:57;;;;;;;3.20;2.13;;;26.50;47.40;;;;;;5069885;28;20063;-58
2023/06/15 10:59:41;;;;;;;3.45;2.20;;;26.50;45.70;;;;;;5081111;28;20032;-58
2023/06/15 11:02:29;;;;;;;4.28;2.40;;;26.40;45.30;;;;;;5080823;28;20051;-58
2023/06/15 11:05:05;;;;;;;5.05;2.35;;;26.40;46.40;;;;;;5077587;28;20128;-58
2023/06/15 11:07:36;;;;;;;4.32;2.10;;;26.40;47.50;;;;;;5077836;28;20048;-57
2023/06/15 11:10:22;;;;;;;3.13;2.00;;;26.40;47.20;;;;;;5080483;28;20075;-57
2023/06/15 11:13:00;;;;;;;3.03;2.35;;;26.40;47.60;;;;;;5080742;28;20071;-58
2023/06/15 11:15:32;;;;;;;4.18;2.30;;;26.50;48.70;;;;;;5079316;28;20057;-58
2023/06/15 11:18:03;;;;;;;4.65;2.70;;;26.60;47.80;;;;;;5080334;28;20075;-58
2023/06/15 11:20:38;;;;;;;4.00;1.85;;;26.70;48.70;;;;;;5078581;28;20055;-58
2023/06/15 11:23:16;;;;;;;3.80;2.25;;;26.70;48.60;;;;;;5080392;28;20048;-58
2023/06/15 11:25:44;;;;;;;3.90;2.25;;;26.70;48.90;;;;;;5080012;28;20082;-58
2023/06/15 11:28:15;;;;;;;4.40;2.30;;;26.80;48.20;;;;;;5079740;28;20081;-58
2023/06/15 11:30:42;;;;;;;4.78;2.30;;;26.80;48.60;;;;;;5079795;28;20102;-58
2023/06/15 11:33:12;;;;;;;3.95;2.00;;;26.90;48.20;;;;;;5080147;28;20066;-58
2023/06/15 11:35:38;;;;;;;3.88;2.40;;;26.90;48.10;;;;;;5064974;28;20070;-58
2023/06/15 11:38:07;;;;;;;3.10;2.28;;;26.90;48.10;;;;;;5060325;28;20037;-57
2023/06/15 11:40:36;;;;;;;3.15;2.28;;;26.90;47.50;;;;;;5060067;28;20095;-58
2023/06/15 11:43:05;;;;;;;4.40;2.40;;;26.90;47.70;;;;;;5059775;28;20092;-57
2023/06/15 11:45:31;;;;;;;4.70;2.22;;;26.90;47.40;;;;;;5060343;28;20045;-57
2023/06/15 11:47:56;;;;;;;3.70;2.33;;;26.90;48.20;;;;;;5059515;28;20077;-56
2023/06/15 11:50:23;;;;;;;5.03;2.50;;;27.00;49.30;;;;;;5059912;28;20068;-57
2023/06/15 11:52:49;;;;;;;4.75;2.50;;;27.10;49.90;;;;;;5062809;28;20048;-57
2023/06/15 11:55:16;;;;;;;4.85;2.30;;;27.30;50.10;;;;;;5079522;28;20040;-57
2023/06/15 11:57:43;;;;;;;3.30;2.22;;;27.40;49.70;;;;;;5079958;28;20571;-57
2023/06/15 12:00:12;;;;;;;4.55;2.20;;;27.50;48.00;;;;;;5077863;28;20048;-57
2023/06/15 12:02:42;;;;;;;3.65;2.20;;;27.50;49.10;;;;;;5076120;28;20417;-57
2023/06/15 12:05:11;;;;;;;4.35;2.80;;;27.50;49.20;;;;;;5075374;28;20041;-56
2023/06/15 12:07:38;;;;;;;4.75;2.30;;;27.50;48.80;;;;;;5068350;28;20052;-57
2023/06/15 12:10:06;;;;;;;2.95;2.40;;;27.50;48.10;;;;;;5079370;28;20048;-57
2023/06/15 12:12:33;;;;;;;2.63;2.15;;;27.60;47.90;;;;;;5079578;28;20044;-57
2023/06/15 12:15:05;;;;;;;3.90;2.13;;;27.60;47.60;;;;;;5079673;28;20047;-57
2023/06/15 12:17:33;;;;;;;3.55;2.30;;;27.70;47.20;;;;;;5076629;28;20049;-57
2023/06/15 12:20:14;;;;;;;3.47;2.10;;;27.70;47.50;;;;;;5075548;28;20040;-57
2023/06/15 12:22:43;;;;;;;8.10;2.30;;;27.70;48.20;;;;;;5078726;28;20041;-56
2023/06/15 12:25:09;;;;;;;5.38;2.85;;;27.80;48.80;;;;;;5079061;28;20059;-57
2023/06/15 12:27:42;;;;;;;6.07;2.72;;;28.00;48.80;;;;;;5079547;28;20036;-57
2023/06/15 12:30:15;;;;;;;4.20;2.40;;;28.30;49.00;;;;;;5078689;28;20104;-57
2023/06/15 12:32:46;;;;;;;2.70;2.30;;;28.60;49.00;;;;;;5078328;28;20066;-58
2023/06/15 12:35:38;;;;;;;3.00;2.40;;;28.80;48.30;;;;;;5078915;28;20044;-57
2023/06/15 12:38:07;;;;;;;4.20;2.20;;;29.00;46.50;;;;;;5077559;28;20076;-57
2023/06/15 12:40:41;;;;;;;3.30;2.65;;;29.10;48.30;;;;;;5079353;28;20051;-57
2023/06/15 12:43:07;;;;;;;4.88;2.40;;;29.40;49.00;;;;;;5078757;28;20663;-59
2023/06/15 12:45:33;;;;;;;5.88;2.55;;;29.70;47.50;;;;;;5074086;28;20040;-57
2023/06/15 12:48:00;;;;;;;2.92;2.35;;;29.80;46.80;;;;;;5063716;28;20043;-58